Time;durP1;ratioP1;P1;durP2;ratioP2;P2;SDS_P1;SDS_P2;PMS_P1;PMS_P2;Temp;Humidity;BMP_temperature;BMP_pressure;BME280_temperature;BME280_humidity;BME280_pressure;Samples;Min_cycle;Max_cycle;Signal;HPM_P1;HPM_P2
2022/06/22 00:00:07;;;;;;;3.55;3.10;;;;;;;;;;5114506;28;20015;-87
2022/06/22 00:02:37;;;;;;;3.72;2.80;;;;;;;;;;5132955;28;20047;-86
2022/06/22 00:05:13;;;;;;;2.88;2.67;;;;;;;;;;5114368;28;20031;-87
2022/06/22 00:07:42;;;;;;;2.92;2.50;;;;;;;;;;5112235;28;20099;-87
2022/06/22 00:10:19;;;;;;;3.92;2.97;;;;;;;;;;5127553;28;20019;-88
2022/06/22 00:12:53;;;;;;;3.05;2.50;;;;;;;;;;5113826;28;20031;-87
2022/06/22 00:15:36;;;;;;;3.92;2.60;;;;;;;;;;5114650;28;20097;-87
2022/06/22 00:18:24;;;;;;;2.83;2.60;;;;;;;;;;5131114;28;20031;-84
2022/06/22 00:20:51;;;;;;;2.78;2.47;;;;;;;;;;5129220;27;20028;-85
2022/06/22 00:23:40;;;;;;;4.43;2.50;;;;;;;;;;5133673;27;20027;-85
2022/06/22 00:26:31;;;;;;;2.75;2.45;;;;;;;;;;5135190;27;20026;-85
2022/06/22 00:29:09;;;;;;;2.95;2.53;;;;;;;;;;5133515;27;20219;-85
2022/06/22 00:31:37;;;;;;;2.97;2.30;;;;;;;;;;5117864;27;20127;-85
2022/06/22 00:34:06;;;;;;;2.80;2.50;;;;;;;;;;5136811;27;20483;-88
2022/06/22 00:36:42;;;;;;;4.53;2.67;;;;;;;;;;5136163;27;20079;-87
2022/06/22 00:39:20;;;;;;;3.35;2.50;;;;;;;;;;5134025;27;20439;-86
2022/06/22 00:41:58;;;;;;;2.75;2.55;;;;;;;;;;5135947;27;20155;-86
2022/06/22 00:44:28;;;;;;;3.05;2.40;;;;;;;;;;5136242;27;20486;-86
2022/06/22 00:47:10;;;;;;;3.47;2.60;;;;;;;;;;5116866;27;20364;-85
2022/06/22 00:49:42;;;;;;;3.33;2.65;;;;;;;;;;5115502;27;20067;-86
2022/06/22 00:52:08;;;;;;;2.70;2.50;;;;;;;;;;5135882;27;20023;-85
2022/06/22 00:54:35;;;;;;;2.72;2.50;;;;;;;;;;5136237;27;20455;-86
2022/06/22 00:57:08;;;;;;;3.35;2.53;;;;;;;;;;5135562;27;20382;-85
2022/06/22 00:59:49;;;;;;;2.90;2.47;;;;;;;;;;5136162;27;20041;-88
2022/06/22 01:02:40;;;;;;;2.85;2.63;;;;;;;;;;5134783;27;20023;-86
2022/06/22 01:05:17;;;;;;;3.38;2.50;;;;;;;;;;5135365;27;20042;-86
2022/06/22 01:08:04;;;;;;;3.40;2.60;;;;;;;;;;5133400;27;20463;-87
2022/06/22 01:10:46;;;;;;;2.65;2.40;;;;;;;;;;5134177;27;20038;-86
2022/06/22 01:13:42;;;;;;;2.83;2.50;;;;;;;;;;5135652;27;20137;-85
2022/06/22 01:16:17;;;;;;;3.47;2.47;;;;;;;;;;5116025;27;20355;-86
2022/06/22 01:18:58;;;;;;;3.00;2.40;;;;;;;;;;5135380;27;20023;-85
2022/06/22 01:21:30;;;;;;;3.28;2.47;;;;;;;;;;5134993;27;20051;-84
2022/06/22 01:24:15;;;;;;;3.00;2.65;;;;;;;;;;5116697;27;20109;-86
2022/06/22 01:26:48;;;;;;;3.20;2.65;;;;;;;;;;5135401;27;20034;-85
2022/06/22 01:29:25;;;;;;;2.72;2.42;;;;;;;;;;5135621;27;20416;-87
2022/06/22 01:32:00;;;;;;;2.70;2.50;;;;;;;;;;5116642;27;20023;-85
2022/06/22 01:34:32;;;;;;;3.03;2.40;;;;;;;;;;5113945;27;20015;-86
2022/06/22 01:37:04;;;;;;;4.30;2.70;;;;;;;;;;5116087;27;20513;-86
2022/06/22 01:39:29;;;;;;;2.90;2.53;;;;;;;;;;5116100;27;20047;-86
2022/06/22 01:42:07;;;;;;;3.10;2.55;;;;;;;;;;5116101;27;20019;-86
2022/06/22 01:44:54;;;;;;;3.08;2.60;;;;;;;;;;5133830;27;20030;-85
2022/06/22 01:47:22;;;;;;;3.05;2.60;;;;;;;;;;5114427;27;20109;-85
2022/06/22 01:49:59;;;;;;;3.38;2.60;;;;;;;;;;5133222;27;20532;-85
2022/06/22 01:52:52;;;;;;;3.42;2.63;;;;;;;;;;5131767;27;20106;-85
2022/06/22 01:55:30;;;;;;;3.67;2.67;;;;;;;;;;5114015;27;20033;-83
2022/06/22 01:58:08;;;;;;;3.20;2.45;;;;;;;;;;5132869;27;20050;-84
2022/06/22 02:00:33;;;;;;;3.85;2.58;;;;;;;;;;5131198;27;20103;-85
2022/06/22 02:03:12;;;;;;;3.60;2.53;;;;;;;;;;5133747;27;20065;-84
2022/06/22 02:05:46;;;;;;;3.05;2.60;;;;;;;;;;5131797;27;20031;-84
2022/06/22 02:08:32;;;;;;;2.60;2.40;;;;;;;;;;5132254;27;20042;-84
2022/06/22 02:11:05;;;;;;;2.83;2.50;;;;;;;;;;5131809;27;20382;-86
2022/06/22 02:13:53;;;;;;;3.03;2.60;;;;;;;;;;5133962;27;20344;-85
2022/06/22 02:16:37;;;;;;;4.20;2.80;;;;;;;;;;5115383;27;20054;-85
2022/06/22 02:19:02;;;;;;;2.85;2.55;;;;;;;;;;5131672;27;20475;-86
2022/06/22 02:21:49;;;;;;;2.83;2.63;;;;;;;;;;5115708;27;20034;-84
2022/06/22 02:24:32;;;;;;;3.20;2.58;;;;;;;;;;5115342;27;20030;-85
2022/06/22 02:26:57;;;;;;;2.88;2.60;;;;;;;;;;5131963;27;20027;-85
2022/06/22 02:29:30;;;;;;;6.72;2.78;;;;;;;;;;5133762;27;20014;-85
2022/06/22 02:32:00;;;;;;;3.00;2.70;;;;;;;;;;5134246;27;20379;-84
2022/06/22 02:34:26;;;;;;;3.17;2.75;;;;;;;;;;5115365;27;20015;-85
2022/06/22 02:36:53;;;;;;;3.92;2.83;;;;;;;;;;5133818;27;20042;-84
2022/06/22 02:39:22;;;;;;;3.42;2.63;;;;;;;;;;5133954;27;20035;-84
2022/06/22 02:44:40;;;;;;;3.22;2.45;;;;;;;;;;5133682;27;20539;-85
2022/06/22 02:47:47;;;;;;;2.83;2.50;;;;;;;;;;5133828;27;20026;-85
2022/06/22 02:50:25;;;;;;;4.85;3.00;;;;;;;;;;5130109;27;20034;-85
2022/06/22 02:52:54;;;;;;;3.33;3.00;;;;;;;;;;5132460;27;20058;-85
2022/06/22 02:55:26;;;;;;;3.97;3.08;;;;;;;;;;5115038;27;20398;-84
2022/06/22 02:57:51;;;;;;;3.53;2.80;;;;;;;;;;5133659;27;20391;-86
2022/06/22 03:00:29;;;;;;;3.45;2.78;;;;;;;;;;5129973;27;20076;-85
2022/06/22 03:03:06;;;;;;;4.43;3.35;;;;;;;;;;5132881;27;20364;-86
2022/06/22 03:05:34;;;;;;;3.45;3.03;;;;;;;;;;5112907;27;20035;-86
2022/06/22 03:08:01;;;;;;;3.40;3.10;;;;;;;;;;5132010;27;20031;-87
2022/06/22 03:10:52;;;;;;;3.50;2.78;;;;;;;;;;5131853;27;20106;-86
2022/06/22 03:13:22;;;;;;;4.28;2.97;;;;;;;;;;5121633;27;20083;-87
2022/06/22 03:15:48;;;;;;;3.53;2.88;;;;;;;;;;5113930;27;20031;-86
2022/06/22 03:18:19;;;;;;;3.17;2.88;;;;;;;;;;5114509;27;20038;-87
2022/06/22 03:20:51;;;;;;;3.67;3.28;;;;;;;;;;5132859;27;20391;-85
2022/06/22 03:23:48;;;;;;;3.70;3.40;;;;;;;;;;5112201;27;20023;-87
2022/06/22 03:26:21;;;;;;;4.88;3.35;;;;;;;;;;5113435;27;20023;-86
2022/06/22 03:29:13;;;;;;;4.13;3.50;;;;;;;;;;5132692;27;20031;-86
2022/06/22 03:31:49;;;;;;;3.60;3.28;;;;;;;;;;5132544;27;20088;-87
2022/06/22 03:34:20;;;;;;;3.40;3.10;;;;;;;;;;5131705;27;20023;-88
2022/06/22 03:37:14;;;;;;;3.88;3.40;;;;;;;;;;5132791;27;20051;-87
2022/06/22 03:39:45;;;;;;;5.13;3.50;;;;;;;;;;5127309;27;20043;-86
2022/06/22 03:42:19;;;;;;;4.22;3.80;;;;;;;;;;5113264;27;20435;-88
2022/06/22 03:45:10;;;;;;;5.78;3.38;;;;;;;;;;5111375;27;20091;-89
2022/06/22 03:47:41;;;;;;;4.03;3.60;;;;;;;;;;5130873;27;20023;-88
2022/06/22 03:50:29;;;;;;;4.03;2.92;;;;;;;;;;5133053;27;20022;-88
2022/06/22 03:53:11;;;;;;;4.32;3.88;;;;;;;;;;5132710;28;20058;-87
2022/06/22 03:55:41;;;;;;;4.13;3.72;;;;;;;;;;5131509;27;20055;-85
2022/06/22 03:58:09;;;;;;;4.78;4.28;;;;;;;;;;5113625;28;20471;-84
2022/06/22 04:00:38;;;;;;;4.28;3.88;;;;;;;;;;5131044;28;20102;-84
2022/06/22 04:03:05;;;;;;;5.05;3.67;;;;;;;;;;5132148;28;20471;-83
2022/06/22 04:05:38;;;;;;;3.72;3.33;;;;;;;;;;5109492;28;20047;-85
2022/06/22 04:08:04;;;;;;;3.53;3.13;;;;;;;;;;5132324;28;20042;-84
2022/06/22 04:10:51;;;;;;;3.70;3.40;;;;;;;;;;5131434;28;20027;-85
2022/06/22 04:13:21;;;;;;;6.35;3.72;;;;;;;;;;5108021;28;20023;-86
2022/06/22 04:15:55;;;;;;;5.75;3.80;;;;;;;;;;5131432;28;20557;-85
2022/06/22 04:18:28;;;;;;;4.55;3.60;;;;;;;;;;5110971;28;20029;-86
2022/06/22 04:21:04;;;;;;;4.10;3.70;;;;;;;;;;5112207;28;20079;-85
2022/06/22 04:23:50;;;;;;;4.10;3.47;;;;;;;;;;5132804;28;20035;-88
2022/06/22 04:26:18;;;;;;;4.75;4.00;;;;;;;;;;5132046;28;20019;-84
2022/06/22 04:28:46;;;;;;;4.63;3.53;;;;;;;;;;5132211;28;20376;-87
2022/06/22 04:31:21;;;;;;;4.13;3.72;;;;;;;;;;5131259;28;20467;-85
2022/06/22 04:33:52;;;;;;;4.18;3.70;;;;;;;;;;5129729;28;20102;-86
2022/06/22 04:36:54;;;;;;;3.63;3.15;;;;;;;;;;5113573;28;20058;-86
2022/06/22 04:39:25;;;;;;;4.68;3.40;;;;;;;;;;5011907;28;20075;-86
2022/06/22 04:41:52;;;;;;;4.63;3.65;;;;;;;;;;5128386;27;20078;-87
2022/06/22 04:44:22;;;;;;;4.18;3.60;;;;;;;;;;5132314;28;20106;-83
2022/06/22 04:46:49;;;;;;;;;;;;;;;;;;5132864;28;20471;-86
2022/06/22 04:49:30;;;;;;;4.10;3.70;;;;;;;;;;5130556;28;19915;-85
2022/06/22 04:52:23;;;;;;;4.40;3.80;;;;;;;;;;5129461;28;20019;-85
2022/06/22 04:54:52;;;;;;;3.88;3.20;;;;;;;;;;5109762;28;20110;-85
2022/06/22 04:57:22;;;;;;;3.67;3.38;;;;;;;;;;5131649;28;20031;-84
2022/06/22 04:59:49;;;;;;;3.60;3.30;;;;;;;;;;5113521;28;20383;-86
2022/06/22 05:02:17;;;;;;;4.40;3.67;;;;;;;;;;5130518;28;20028;-84
2022/06/22 05:04:46;;;;;;;3.85;3.22;;;;;;;;;;5131050;28;20032;-84
2022/06/22 05:07:34;;;;;;;3.83;3.53;;;;;;;;;;5132042;27;20034;-84
2022/06/22 05:10:10;;;;;;;4.18;3.58;;;;;;;;;;5132264;27;20102;-85
2022/06/22 05:13:10;;;;;;;3.88;3.45;;;;;;;;;;5134362;27;20034;-84
2022/06/22 05:15:37;;;;;;;3.97;3.55;;;;;;;;;;5120221;27;20058;-86
2022/06/22 05:18:09;;;;;;;4.20;3.47;;;;;;;;;;5131548;27;20486;-86
2022/06/22 05:20:44;;;;;;;3.78;3.38;;;;;;;;;;5134512;27;20485;-85
2022/06/22 05:23:09;;;;;;;4.15;3.45;;;;;;;;;;5116617;27;20027;-86
2022/06/22 05:25:36;;;;;;;4.15;3.45;;;;;;;;;;5133276;27;20071;-85
2022/06/22 05:28:06;;;;;;;3.90;3.50;;;;;;;;;;5135441;27;20534;-88
2022/06/22 05:30:37;;;;;;;3.75;3.40;;;;;;;;;;5135152;27;20046;-87
2022/06/22 05:33:10;;;;;;;3.80;3.05;;;;;;;;;;5130465;27;20031;-86
2022/06/22 05:35:42;;;;;;;3.67;3.38;;;;;;;;;;5135269;27;20054;-85
2022/06/22 05:38:10;;;;;;;4.07;3.65;;;;;;;;;;5115164;27;20114;-86
2022/06/22 05:40:38;;;;;;;5.47;3.85;;;;;;;;;;5135885;27;20031;-86
2022/06/22 05:43:05;;;;;;;3.67;3.33;;;;;;;;;;5134698;27;20467;-85
2022/06/22 05:45:36;;;;;;;4.18;3.70;;;;;;;;;;5130872;27;20035;-87
2022/06/22 05:48:02;;;;;;;4.32;3.92;;;;;;;;;;5114463;27;20035;-85
2022/06/22 05:50:31;;;;;;;3.95;3.58;;;;;;;;;;5134653;27;20038;-87
2022/06/22 05:52:58;;;;;;;5.80;3.47;;;;;;;;;;5133860;27;20023;-87
2022/06/22 05:55:35;;;;;;;4.20;3.75;;;;;;;;;;5133832;27;20252;-86
2022/06/22 05:58:18;;;;;;;3.92;3.60;;;;;;;;;;5132591;27;20031;-85
2022/06/22 06:00:49;;;;;;;4.47;3.60;;;;;;;;;;5114854;27;20542;-85
2022/06/22 06:03:23;;;;;;;4.75;3.75;;;;;;;;;;5116171;27;20038;-88
2022/06/22 06:05:53;;;;;;;4.60;3.70;;;;;;;;;;5112989;27;20023;-88
2022/06/22 06:08:25;;;;;;;4.60;3.72;;;;;;;;;;5133374;27;20051;-87
2022/06/22 06:10:51;;;;;;;3.67;3.38;;;;;;;;;;5133982;27;20416;-88
2022/06/22 06:13:26;;;;;;;4.03;3.67;;;;;;;;;;5134300;27;20364;-90
2022/06/22 06:15:58;;;;;;;3.88;3.47;;;;;;;;;;5134560;27;20441;-87
2022/06/22 06:18:29;;;;;;;5.10;3.90;;;;;;;;;;5132972;27;20033;-87
2022/06/22 06:21:06;;;;;;;7.00;3.80;;;;;;;;;;5128619;27;20027;-87
2022/06/22 06:23:42;;;;;;;4.03;3.60;;;;;;;;;;5115479;27;20023;-86
2022/06/22 06:29:11;;;;;;;4.30;3.33;;;;;;;;;;5135441;27;20172;-89
2022/06/22 06:32:00;;;;;;;4.25;3.80;;;;;;;;;;5136716;27;20476;-86
2022/06/22 06:34:33;;;;;;;3.92;3.60;;;;;;;;;;5118636;27;20885;-86
2022/06/22 06:37:05;;;;;;;4.05;3.58;;;;;;;;;;5117819;27;20528;-88
2022/06/22 06:39:36;;;;;;;4.65;3.58;;;;;;;;;;5132604;27;20044;-89
2022/06/22 06:42:16;;;;;;;5.10;4.70;;;;;;;;;;5115174;27;20038;-84
2022/06/22 06:44:43;;;;;;;5.20;4.70;;;;;;;;;;5132497;27;20026;-89
2022/06/22 06:47:22;;;;;;;4.85;4.35;;;;;;;;;;5112756;27;20023;-88
2022/06/22 06:49:57;;;;;;;4.72;4.32;;;;;;;;;;5107429;27;20072;-87
2022/06/22 06:52:44;;;;;;;5.07;4.50;;;;;;;;;;5131015;27;20035;-85
2022/06/22 06:55:12;;;;;;;4.63;4.20;;;;;;;;;;5132824;27;20019;-88
2022/06/22 06:58:06;;;;;;;4.35;4.00;;;;;;;;;;5114189;27;20045;-89
2022/06/22 07:00:33;;;;;;;4.75;3.85;;;;;;;;;;5092018;27;20038;-86
2022/06/22 07:02:59;;;;;;;4.68;4.28;;;;;;;;;;5134539;27;20027;-86
2022/06/22 07:05:28;;;;;;;4.97;3.90;;;;;;;;;;5134202;27;20080;-89
2022/06/22 07:07:59;;;;;;;3.85;3.55;;;;;;;;;;5113357;27;20419;-87
2022/06/22 07:10:38;;;;;;;5.70;3.90;;;;;;;;;;5131782;27;20069;-87
2022/06/22 07:13:16;;;;;;;4.47;3.10;;;;;;;;;;5115212;27;20118;-87
2022/06/22 07:15:48;;;;;;;4.05;3.60;;;;;;;;;;5131739;27;20102;-85
2022/06/22 07:18:36;;;;;;;4.68;3.70;;;;;;;;;;5110034;27;20027;-85
2022/06/22 07:21:21;;;;;;;4.40;3.92;;;;;;;;;;5130938;27;20383;-87
2022/06/22 07:24:05;;;;;;;4.20;3.80;;;;;;;;;;5114140;27;20372;-88
2022/06/22 07:26:44;;;;;;;4.20;3.65;;;;;;;;;;5132570;27;20101;-87
2022/06/22 07:29:48;;;;;;;4.40;4.00;;;;;;;;;;5130595;27;20023;-86
2022/06/22 07:32:54;;;;;;;4.20;3.80;;;;;;;;;;5132122;27;20125;-87
2022/06/22 07:35:24;;;;;;;5.60;4.40;;;;;;;;;;5132362;27;20035;-87
2022/06/22 07:37:58;;;;;;;4.82;4.43;;;;;;;;;;5130276;27;20068;-83
2022/06/22 07:40:27;;;;;;;4.88;4.38;;;;;;;;;;5129389;27;20042;-87
2022/06/22 07:42:55;;;;;;;5.80;4.60;;;;;;;;;;5131164;27;20364;-91
2022/06/22 07:45:23;;;;;;;4.57;4.18;;;;;;;;;;5114982;28;20023;-85
2022/06/22 07:48:01;;;;;;;5.35;4.20;;;;;;;;;;5132669;27;20023;-86
2022/06/22 07:50:32;;;;;;;4.82;4.18;;;;;;;;;;5111456;27;20523;-87
2022/06/22 07:53:12;;;;;;;5.55;4.93;;;;;;;;;;5126582;27;20023;-87
2022/06/22 07:56:01;;;;;;;5.97;5.40;;;;;;;;;;5117985;28;20114;-86
2022/06/22 07:58:47;;;;;;;3.42;3.13;;;;;;;;;;5131107;28;20016;-87
2022/06/22 08:01:19;;;;;;;4.28;3.88;;;;;;;;;;5133031;28;20023;-92
2022/06/22 08:03:53;;;;;;;5.25;3.70;;;;;;;;;;5128196;28;20324;-89
2022/06/22 08:06:21;;;;;;;5.15;3.60;;;;;;;;;;5111884;28;20123;-90
2022/06/22 08:09:00;;;;;;;4.00;3.67;;;;;;;;;;5130479;28;20031;-85
2022/06/22 08:11:25;;;;;;;4.20;3.80;;;;;;;;;;5130016;28;20015;-87
2022/06/22 08:14:03;;;;;;;4.80;3.78;;;;;;;;;;5112851;28;20292;-86
2022/06/22 08:16:34;;;;;;;7.13;3.53;;;;;;;;;;5110649;28;20027;-87
2022/06/22 08:19:01;;;;;;;4.07;3.60;;;;;;;;;;5126256;28;20076;-88
2022/06/22 08:21:28;;;;;;;3.92;3.60;;;;;;;;;;5131797;28;20102;-87
2022/06/22 08:23:55;;;;;;;5.28;4.00;;;;;;;;;;5110325;28;20483;-85
2022/06/22 08:26:24;;;;;;;4.20;3.80;;;;;;;;;;5113351;28;20027;-89
2022/06/22 08:28:51;;;;;;;4.50;3.88;;;;;;;;;;5131918;28;20229;-86
2022/06/22 08:31:17;;;;;;;4.35;3.95;;;;;;;;;;5131927;28;20054;-86
2022/06/22 08:33:57;;;;;;;4.40;4.00;;;;;;;;;;5131049;28;20079;-86
2022/06/22 08:36:38;;;;;;;4.68;3.88;;;;;;;;;;5131283;28;20075;-86
2022/06/22 08:39:18;;;;;;;5.18;3.63;;;;;;;;;;5127300;28;20036;-86
2022/06/22 08:42:00;;;;;;;4.38;3.38;;;;;;;;;;5128907;28;20105;-87
2022/06/22 08:44:37;;;;;;;4.15;3.75;;;;;;;;;;5117335;27;20034;-89
2022/06/22 08:47:39;;;;;;;3.78;3.30;;;;;;;;;;5134085;27;20031;-86
2022/06/22 08:50:43;;;;;;;5.13;3.17;;;;;;;;;;5111714;27;20114;-83
2022/06/22 08:53:22;;;;;;;4.15;3.15;;;;;;;;;;5069246;28;20032;-84
2022/06/22 08:56:02;;;;;;;4.20;3.67;;;;;;;;;;5126545;27;20039;-85
2022/06/22 08:58:43;;;;;;;5.25;3.42;;;;;;;;;;5134860;27;20023;-87
2022/06/22 09:01:40;;;;;;;3.92;3.53;;;;;;;;;;5134131;27;20023;-87
2022/06/22 09:04:35;;;;;;;3.58;3.13;;;;;;;;;;5133786;27;20031;-85
2022/06/22 09:07:34;;;;;;;4.15;3.33;;;;;;;;;;5133224;27;20678;-85
2022/06/22 09:10:06;;;;;;;3.70;3.03;;;;;;;;;;5113031;27;20364;-86
2022/06/22 09:12:55;;;;;;;3.25;2.95;;;;;;;;;;5114145;27;20073;-84
2022/06/22 09:15:39;;;;;;;5.30;2.88;;;;;;;;;;5115757;27;20114;-85
2022/06/22 09:18:13;;;;;;;3.25;2.95;;;;;;;;;;5131218;27;20776;-83
2022/06/22 09:20:57;;;;;;;3.35;3.05;;;;;;;;;;5131664;27;20027;-87
2022/06/22 09:23:26;;;;;;;3.13;2.80;;;;;;;;;;5131312;27;20030;-87
2022/06/22 09:26:18;;;;;;;4.72;2.97;;;;;;;;;;5132039;27;20054;-85
2022/06/22 09:29:12;;;;;;;4.30;2.70;;;;;;;;;;5108687;27;20467;-85
2022/06/22 09:31:56;;;;;;;5.93;3.65;;;;;;;;;;5132366;27;20038;-83
2022/06/22 09:34:43;;;;;;;3.47;2.75;;;;;;;;;;5132746;27;20027;-85
2022/06/22 09:37:34;;;;;;;3.40;2.65;;;;;;;;;;5132574;27;20089;-84
2022/06/22 09:40:18;;;;;;;3.60;2.80;;;;;;;;;;5116080;27;20491;-85
2022/06/22 09:43:05;;;;;;;3.60;3.05;;;;;;;;;;5113936;27;20027;-84
2022/06/22 09:45:36;;;;;;;3.17;2.88;;;;;;;;;;5132683;27;20084;-85
2022/06/22 09:48:34;;;;;;;3.03;2.72;;;;;;;;;;5114927;27;20489;-86
2022/06/22 09:51:21;;;;;;;3.75;3.10;;;;;;;;;;5099590;27;20074;-83
2022/06/22 09:56:19;;;;;;;3.40;2.90;;;;;;;;;;5132123;27;20398;-87
2022/06/22 09:57:17;;;;;;;5.72;3.28;;;;;;;;;;5130700;27;20069;-86
2022/06/22 10:00:03;;;;;;;3.63;2.80;;;;;;;;;;5131072;27;20079;-86
2022/06/22 10:03:19;;;;;;;3.97;2.85;;;;;;;;;;5133714;27;20027;-85
2022/06/22 10:06:03;;;;;;;4.40;3.00;;;;;;;;;;5131468;27;20023;-86
2022/06/22 10:08:49;;;;;;;2.83;2.58;;;;;;;;;;5131327;27;20053;-85
2022/06/22 10:11:25;;;;;;;3.65;3.00;;;;;;;;;;5132562;27;20015;-86
2022/06/22 10:14:18;;;;;;;3.45;3.03;;;;;;;;;;5132876;27;20015;-85
2022/06/22 10:17:28;;;;;;;3.63;2.63;;;;;;;;;;5115293;27;20031;-86
2022/06/22 10:20:21;;;;;;;4.32;2.95;;;;;;;;;;5112984;27;20529;-85
2022/06/22 10:22:59;;;;;;;2.95;2.70;;;;;;;;;;5114602;27;20039;-86
2022/06/22 10:25:45;;;;;;;4.13;2.70;;;;;;;;;;5112115;27;20023;-86
2022/06/22 10:28:13;;;;;;;4.55;2.92;;;;;;;;;;5112670;27;20067;-88
2022/06/22 10:31:20;;;;;;;4.63;2.90;;;;;;;;;;5133585;27;20027;-85
2022/06/22 10:34:06;;;;;;;2.95;2.63;;;;;;;;;;5131621;27;20462;-87
2022/06/22 10:36:46;;;;;;;2.85;2.50;;;;;;;;;;5113428;27;20099;-88
2022/06/22 10:39:27;;;;;;;3.80;2.70;;;;;;;;;;5132945;27;20043;-85
2022/06/22 10:45:08;;;;;;;4.40;2.70;;;;;;;;;;5100380;27;20030;-82
2022/06/22 10:48:01;;;;;;;3.88;2.60;;;;;;;;;;5109322;27;20027;-84
2022/06/22 10:50:40;;;;;;;2.80;2.35;;;;;;;;;;5133103;27;20027;-86
2022/06/22 10:53:31;;;;;;;4.03;2.42;;;;;;;;;;5133049;27;20053;-88
2022/06/22 10:56:02;;;;;;;2.95;2.63;;;;;;;;;;5109385;27;20046;-84
2022/06/22 10:59:07;;;;;;;3.25;2.60;;;;;;;;;;5114876;27;20087;-83
2022/06/22 11:01:54;;;;;;;2.80;2.50;;;;;;;;;;5064273;27;20130;-86
2022/06/22 11:04:57;;;;;;;3.92;2.55;;;;;;;;;;5129722;27;20038;-86
2022/06/22 11:08:00;;;;;;;5.43;2.67;;;;;;;;;;5129465;27;20352;-85
2022/06/22 11:10:59;;;;;;;4.07;2.83;;;;;;;;;;5095595;27;20118;-88
2022/06/22 11:13:57;;;;;;;4.63;2.40;;;;;;;;;;5111305;27;20023;-86
2022/06/22 11:16:38;;;;;;;3.00;2.47;;;;;;;;;;5110134;27;20034;-86
2022/06/22 11:19:25;;;;;;;2.53;2.20;;;;;;;;;;5112086;27;20080;-85
2022/06/22 11:21:56;;;;;;;3.50;2.45;;;;;;;;;;5129303;27;20023;-84
2022/06/22 11:24:39;;;;;;;2.95;2.42;;;;;;;;;;5127875;27;20027;-85
2022/06/22 11:33:08;;;;;;;3.45;2.60;;;;;;;;;;5131588;27;20038;-87
2022/06/22 11:36:15;;;;;;;3.42;2.30;;;;;;;;;;5130071;27;20023;-86
2022/06/22 11:39:11;;;;;;;4.03;2.92;;;;;;;;;;5130874;27;20495;-86
2022/06/22 11:41:42;;;;;;;3.72;3.08;;;;;;;;;;5129194;27;20106;-84
2022/06/22 11:45:50;;;;;;;3.58;2.67;;;;;;;;;;5128670;27;20028;-85
2022/06/22 11:48:03;;;;;;;2.90;2.42;;;;;;;;;;5125697;27;20039;-83
2022/06/22 11:50:57;;;;;;;6.35;2.88;;;;;;;;;;5108647;27;20038;-82
2022/06/22 11:53:50;;;;;;;3.45;2.50;;;;;;;;;;5145262;27;20023;-83
2022/06/22 11:56:28;;;;;;;3.08;2.40;;;;;;;;;;5110001;28;20073;-84
2022/06/22 11:59:00;;;;;;;4.13;2.40;;;;;;;;;;5110701;28;20015;-82
2022/06/22 12:01:41;;;;;;;2.80;2.10;;;;;;;;;;5127158;28;20027;-85
2022/06/22 12:04:31;;;;;;;3.10;2.03;;;;;;;;;;5129642;28;20526;-86
2022/06/22 12:07:06;;;;;;;2.25;1.90;;;;;;;;;;5127912;28;20079;-88
2022/06/22 12:10:19;;;;;;;2.10;1.90;;;;;;;;;;5127338;28;20030;-86
2022/06/22 12:13:12;;;;;;;2.30;2.00;;;;;;;;;;5109401;28;20039;-83
2022/06/22 12:15:49;;;;;;;2.35;1.88;;;;;;;;;;5130395;28;20471;-87
2022/06/22 12:18:23;;;;;;;2.33;1.65;;;;;;;;;;5132609;27;20106;-83
2022/06/22 12:21:13;;;;;;;2.53;2.20;;;;;;;;;;5134484;27;20019;-84
2022/06/22 12:23:45;;;;;;;2.80;2.10;;;;;;;;;;5131840;27;20379;-86
2022/06/22 12:26:29;;;;;;;2.80;2.40;;;;;;;;;;5117734;27;20382;-85
2022/06/22 12:29:10;;;;;;;2.20;2.00;;;;;;;;;;5136178;27;20031;-86
2022/06/22 12:31:40;;;;;;;3.03;2.40;;;;;;;;;;5134450;27;20026;-84
2022/06/22 12:34:25;;;;;;;3.80;2.47;;;;;;;;;;5117649;27;20027;-84
2022/06/22 12:36:56;;;;;;;2.92;2.30;;;;;;;;;;5135935;27;20027;-87
2022/06/22 12:39:27;;;;;;;3.22;2.40;;;;;;;;;;5134327;27;20417;-83
2022/06/22 12:42:07;;;;;;;3.30;2.50;;;;;;;;;;5116069;27;20049;-84
2022/06/22 12:44:35;;;;;;;3.38;2.22;;;;;;;;;;5136182;27;20035;-87
2022/06/22 12:47:04;;;;;;;3.17;2.15;;;;;;;;;;5136005;27;20023;-83
2022/06/22 12:50:10;;;;;;;2.58;2.22;;;;;;;;;;5136391;27;20023;-84
2022/06/22 12:52:45;;;;;;;3.78;2.47;;;;;;;;;;5134993;27;20033;-86
2022/06/22 12:55:19;;;;;;;3.15;2.17;;;;;;;;;;5136114;27;20420;-86
2022/06/22 12:57:53;;;;;;;4.15;2.65;;;;;;;;;;5136185;27;20356;-87
2022/06/22 13:00:21;;;;;;;3.13;2.28;;;;;;;;;;5131785;27;20470;-85
2022/06/22 13:02:49;;;;;;;3.22;2.13;;;;;;;;;;5132778;27;20034;-86
2022/06/22 13:05:20;;;;;;;3.65;2.40;;;;;;;;;;5133574;27;20059;-82
2022/06/22 13:07:50;;;;;;;3.05;2.33;;;;;;;;;;5117846;27;20027;-87
2022/06/22 13:10:22;;;;;;;2.90;2.33;;;;;;;;;;5135422;27;20031;-87
2022/06/22 13:13:22;;;;;;;3.08;2.40;;;;;;;;;;5134088;27;20102;-87
2022/06/22 13:16:22;;;;;;;3.22;2.40;;;;;;;;;;5098028;27;20483;-86
2022/06/22 13:18:51;;;;;;;3.22;2.40;;;;;;;;;;5115056;27;20034;-85
2022/06/22 13:21:21;;;;;;;3.85;2.33;;;;;;;;;;5117367;27;20027;-87
2022/06/22 13:24:21;;;;;;;3.17;2.50;;;;;;;;;;5135942;27;20387;-84
2022/06/22 13:26:46;;;;;;;3.13;2.25;;;;;;;;;;5117077;27;20467;-85
2022/06/22 13:29:17;;;;;;;4.03;2.50;;;;;;;;;;5135347;27;20026;-84
2022/06/22 13:31:45;;;;;;;3.67;2.50;;;;;;;;;;5134188;27;20474;-85
2022/06/22 13:34:17;;;;;;;3.53;2.75;;;;;;;;;;5135689;27;20532;-87
2022/06/22 13:36:45;;;;;;;3.40;2.42;;;;;;;;;;5135579;27;20051;-85
2022/06/22 13:39:39;;;;;;;3.47;2.40;;;;;;;;;;5116424;27;20229;-86
2022/06/22 13:42:27;;;;;;;3.13;2.33;;;;;;;;;;5135428;27;20031;-87
2022/06/22 13:45:33;;;;;;;3.63;2.60;;;;;;;;;;5135133;27;20034;-85
2022/06/22 13:48:04;;;;;;;3.40;2.65;;;;;;;;;;5135443;27;20019;-84
2022/06/22 13:50:33;;;;;;;2.80;2.40;;;;;;;;;;5134566;27;20421;-86
2022/06/22 13:53:17;;;;;;;3.10;2.63;;;;;;;;;;5135366;27;20019;-83
2022/06/22 13:56:02;;;;;;;4.35;2.90;;;;;;;;;;5134096;27;20383;-85
2022/06/22 13:58:41;;;;;;;3.25;2.28;;;;;;;;;;5134967;27;20015;-85
2022/06/22 14:01:19;;;;;;;5.13;2.92;;;;;;;;;;5132116;27;20027;-84
2022/06/22 14:04:12;;;;;;;3.10;2.80;;;;;;;;;;5134507;27;20106;-87
2022/06/22 14:06:53;;;;;;;3.40;2.90;;;;;;;;;;5133383;27;20083;-86
2022/06/22 14:09:40;;;;;;;3.20;2.90;;;;;;;;;;5114928;27;20536;-85
2022/06/22 14:12:08;;;;;;;5.30;3.00;;;;;;;;;;5115287;27;20114;-86
2022/06/22 14:14:58;;;;;;;4.60;2.97;;;;;;;;;;5134553;27;20038;-87
2022/06/22 14:17:33;;;;;;;3.50;3.20;;;;;;;;;;5114737;27;20390;-84
2022/06/22 14:20:05;;;;;;;3.30;3.00;;;;;;;;;;5115843;27;20049;-83
2022/06/22 14:22:36;;;;;;;3.78;3.22;;;;;;;;;;5134401;27;20038;-88
2022/06/22 14:25:11;;;;;;;4.10;3.70;;;;;;;;;;5113810;27;20027;-85
2022/06/22 14:27:58;;;;;;;3.97;3.13;;;;;;;;;;5134421;27;20019;-85
2022/06/22 14:30:38;;;;;;;3.85;3.45;;;;;;;;;;5132420;27;20034;-85
2022/06/22 14:33:27;;;;;;;4.10;3.35;;;;;;;;;;5114622;27;20146;-88
2022/06/22 14:36:32;;;;;;;4.20;3.80;;;;;;;;;;5133157;27;20062;-87
2022/06/22 14:39:21;;;;;;;4.40;3.42;;;;;;;;;;5114870;27;20039;-84
2022/06/22 14:41:58;;;;;;;5.72;3.70;;;;;;;;;;5119868;27;20035;-87
2022/06/22 14:44:48;;;;;;;5.43;3.70;;;;;;;;;;5131402;27;20123;-85
2022/06/22 14:47:36;;;;;;;4.60;4.00;;;;;;;;;;5132235;27;20490;-85
2022/06/22 14:50:19;;;;;;;4.60;3.65;;;;;;;;;;5133344;27;20042;-88
2022/06/22 14:52:57;;;;;;;4.32;3.90;;;;;;;;;;5133661;27;20371;-85
2022/06/22 14:55:40;;;;;;;3.85;3.42;;;;;;;;;;5130940;27;20034;-84
2022/06/22 14:58:07;;;;;;;3.90;3.50;;;;;;;;;;5132739;27;20119;-86
2022/06/22 15:00:51;;;;;;;4.22;3.60;;;;;;;;;;5112316;27;20030;-83
2022/06/22 15:03:44;;;;;;;5.30;3.80;;;;;;;;;;5133539;27;20050;-84
2022/06/22 15:06:18;;;;;;;3.90;3.50;;;;;;;;;;5131755;27;20459;-85
2022/06/22 15:08:59;;;;;;;14.35;3.95;;;;;;;;;;5133419;27;20107;-85
2022/06/22 15:14:30;;;;;;;3.72;3.03;;;;;;;;;;5132993;27;20037;-88
2022/06/22 15:17:01;;;;;;;4.25;3.30;;;;;;;;;;5133590;27;20034;-83
2022/06/22 15:19:32;;;;;;;4.53;3.33;;;;;;;;;;5114595;27;20035;-84
2022/06/22 15:22:08;;;;;;;4.97;3.47;;;;;;;;;;5132077;27;20047;-87
2022/06/22 15:24:57;;;;;;;5.85;3.47;;;;;;;;;;5133637;27;20027;-87
2022/06/22 15:27:31;;;;;;;4.10;3.05;;;;;;;;;;5133009;27;20031;-86
2022/06/22 15:30:26;;;;;;;4.07;3.25;;;;;;;;;;5132924;27;20088;-84
2022/06/22 15:33:09;;;;;;;3.92;2.85;;;;;;;;;;5093060;27;20501;-85
2022/06/22 15:35:41;;;;;;;3.63;2.97;;;;;;;;;;5131717;27;20027;-84
2022/06/22 15:38:17;;;;;;;4.43;3.20;;;;;;;;;;5113276;27;20034;-86
2022/06/22 15:40:55;;;;;;;4.90;2.80;;;;;;;;;;5114467;27;20026;-85
2022/06/22 15:43:41;;;;;;;4.03;3.25;;;;;;;;;;5110427;27;20026;-87
2022/06/22 15:46:30;;;;;;;5.25;3.42;;;;;;;;;;5114303;27;20106;-83
2022/06/22 15:49:18;;;;;;;3.80;2.50;;;;;;;;;;5130859;27;20463;-85
2022/06/22 15:52:12;;;;;;;4.88;2.95;;;;;;;;;;5132707;27;20036;-86
2022/06/22 15:54:56;;;;;;;3.88;2.78;;;;;;;;;;5131039;27;20027;-86
2022/06/22 15:57:34;;;;;;;4.30;2.95;;;;;;;;;;5113137;28;20106;-86
2022/06/22 16:00:16;;;;;;;3.28;2.90;;;;;;;;;;5114092;28;20535;-85
2022/06/22 16:02:44;;;;;;;4.47;3.20;;;;;;;;;;5131150;28;20076;-85
2022/06/22 16:05:23;;;;;;;3.33;2.47;;;;;;;;;;5132642;28;20475;-86
2022/06/22 16:08:10;;;;;;;4.73;3.00;;;;;;;;;;5130622;28;20027;-85
2022/06/22 16:14:03;;;;;;;4.75;3.42;;;;;;;;;;5130691;28;20171;-86